Minneapolis, Minnesota
Traffic Map
Current Weather Conditions
Minneapolis, Minnesota
Scattered Clouds
Scattered Clouds
-6°
Feels Like: -10°
Wind Chill: -10° Ceiling: Unl
Heat Index: -6° Visibility: 10mi
Dew Point: -9° Wind: 6mph
Humidity: 75% Direction: 330° (NNW)
Pressure: 30.26in Gusts: 0mph
Raw Report DataKMSP 262253Z 33005KT 10SM SCT048 M06/M09 A3026 RMK AO2 SLP262 T10561094
Traffic Incident Summary
Active as of:
Severity:
Category:
InformationThere was an issue retrieving the traffic information for this location. Please try a different location or try again shortly.
Advertisements
Track Severe Weather on mobile